Time;durP1;ratioP1;P1;durP2;ratioP2;P2;SDS_P1;SDS_P2;PMS_P1;PMS_P2;Temp;Humidity;BMP_temperature;BMP_pressure;BME280_temperature;BME280_humidity;BME280_pressure;Samples;Min_cycle;Max_cycle;Signal;HPM_P1;HPM_P2
2022/01/26 00:00:58;;;;;;;47.73;18.37;;;;;;;7.49;66.90;102921.56;4987447;28;98477;-80
2022/01/26 00:06:14;;;;;;;47.13;17.67;;;;;;;7.49;66.69;102937.25;4985910;28;96966;-81
2022/01/26 00:08:40;;;;;;;42.33;17.97;;;;;;;7.46;66.86;102924.38;4968024;28;97262;-81
2022/01/26 00:11:06;;;;;;;49.57;18.83;;;;;;;7.45;66.79;102936.50;4980830;28;99118;-80
2022/01/26 00:13:31;;;;;;;43.67;17.47;;;;;;;7.44;66.58;102927.53;4963240;28;99160;-81
2022/01/26 00:15:58;;;;;;;42.80;17.53;;;;;;;7.47;66.83;102936.88;4980815;28;97136;-80
2022/01/26 00:18:29;;;;;;;47.40;17.70;;;;;;;7.47;66.59;102928.66;4966022;28;97881;-80
2022/01/26 00:20:58;;;;;;;42.17;17.50;;;;;;;7.42;66.72;102931.88;4964536;28;103556;-82
2022/01/26 00:28:36;;;;;;;47.20;18.60;;;;;;;7.48;66.59;102913.78;4982950;28;96873;-80
2022/01/26 00:39:13;;;;;;;45.87;17.83;;;;;;;7.47;66.67;102920.44;4964728;28;97183;-81
2022/01/26 00:41:40;;;;;;;36.67;15.87;;;;;;;7.48;66.62;102911.81;4982671;28;97399;-80
2022/01/26 00:44:07;;;;;;;43.53;16.73;;;;;;;7.45;66.60;102907.16;4960309;28;99169;-82
2022/01/26 00:46:34;;;;;;;46.17;16.53;;;;;;;7.46;66.56;102899.72;4962752;28;96950;-81
2022/01/26 00:48:59;;;;;;;48.00;17.57;;;;;;;7.49;66.61;102909.88;4985936;28;96886;-80
2022/01/26 00:51:25;;;;;;;47.23;17.10;;;;;;;7.49;66.65;102916.09;4984161;28;97871;-81
2022/01/26 00:54:01;;;;;;;40.40;17.30;;;;;;;7.45;66.69;102898.94;4981480;28;97925;-80
2022/01/26 00:56:28;;;;;;;43.23;16.77;;;;;;;7.47;66.62;102899.31;4963040;28;97274;-81
2022/01/26 00:58:54;;;;;;;42.70;17.97;;;;;;;7.47;66.68;102901.25;4962583;28;97142;-80
2022/01/26 01:01:20;;;;;;;39.17;16.30;;;;;;;7.45;66.64;102898.94;4979813;28;97233;-80
2022/01/26 01:03:47;;;;;;;42.70;16.87;;;;;;;7.47;66.44;102904.00;4981751;28;98129;-80
2022/01/26 01:06:39;;;;;;;38.77;16.33;;;;;;;7.43;66.55;102895.84;4984581;28;97331;-80
2022/01/26 01:09:01;;;;;;;40.60;14.60;;;;;;;7.45;66.58;102885.25;4985066;28;97076;-80
2022/01/26 01:11:27;;;;;;;38.60;14.87;;;;;;;7.46;66.57;102894.25;4964715;28;99452;-80
2022/01/26 01:13:53;;;;;;;43.27;17.07;;;;;;;7.43;66.45;102895.06;4964553;28;100016;-80
2022/01/26 01:16:20;;;;;;;41.30;16.20;;;;;;;7.33;66.57;102921.47;4982474;28;97307;-78
2022/01/26 01:31:39;;;;;;;38.63;14.97;;;;;;;7.36;66.55;102879.53;4978577;28;98082;-81
2022/01/26 01:34:03;;;;;;;34.33;14.43;;;;;;;7.34;66.81;102879.19;4983798;28;103442;-81
2022/01/26 01:36:28;;;;;;;34.50;15.00;;;;;;;7.34;66.86;102870.97;4968276;28;97127;-80
2022/01/26 01:38:55;;;;;;;35.83;14.70;;;;;;;7.32;66.62;102870.59;4967364;28;110458;-80
2022/01/26 01:41:20;;;;;;;35.83;14.00;;;;;;;7.28;66.54;102864.41;4981338;28;97814;-82
2022/01/26 01:43:46;;;;;;;38.07;15.20;;;;;;;7.33;66.66;102874.91;4985337;28;97345;-81
2022/01/26 01:46:11;;;;;;;36.47;15.67;;;;;;;7.31;66.54;102858.13;4964823;28;117404;-81
2022/01/26 01:48:36;;;;;;;41.07;15.60;;;;;;;7.29;66.54;102852.28;4967568;28;97641;-79
2022/01/26 01:51:07;;;;;;;33.50;13.40;;;;;;;7.31;66.59;102860.84;4970800;28;99439;-81
2022/01/26 01:53:41;;;;;;;33.03;13.50;;;;;;;7.32;66.72;102856.91;4982919;28;97307;-81
2022/01/26 01:56:09;;;;;;;30.60;11.83;;;;;;;7.28;66.60;102878.09;4964335;28;97628;-79
2022/01/26 01:58:37;;;;;;;35.87;12.87;;;;;;;7.28;66.55;102872.63;4972546;28;96784;-81
2022/01/26 02:01:04;;;;;;;31.63;12.37;;;;;;;7.30;66.91;102864.00;4965100;28;102253;-81
2022/01/26 02:03:30;;;;;;;31.70;11.93;;;;;;;7.27;66.69;102867.56;4963861;28;100650;-79
2022/01/26 02:05:55;;;;;;;30.80;12.07;;;;;;;7.27;66.60;102864.84;4981605;28;96802;-80
2022/01/26 02:08:21;;;;;;;32.97;12.50;;;;;;;7.27;66.60;102868.31;4980831;28;96855;-80
2022/01/26 02:10:46;;;;;;;31.10;11.90;;;;;;;7.24;66.49;102871.91;4968490;28;99118;-79
2022/01/26 02:13:23;;;;;;;27.80;11.63;;;;;;;7.23;66.55;102859.41;4960346;28;97957;-80
2022/01/26 02:55:49;;;;;;;21.93;9.47;;;;;;;7.08;66.58;102813.50;4980700;28;97140;-80
2022/01/26 02:58:47;;;;;;;20.43;8.90;;;;;;;7.07;66.48;102799.06;4960689;28;97092;-79
2022/01/26 03:04:08;;;;;;;22.40;9.73;;;;;;;7.05;66.68;102787.75;4941944;28;102212;-81
2022/01/26 03:06:47;;;;;;;25.40;9.77;;;;;;;7.06;66.61;102800.25;4968907;28;103089;-80
2022/01/26 03:09:16;;;;;;;26.40;10.67;;;;;;;7.05;66.44;102790.50;4979764;28;96855;-80
2022/01/26 03:11:45;;;;;;;23.67;10.67;;;;;;;7.02;66.48;102788.56;4962890;28;97409;-79
2022/01/26 03:14:23;;;;;;;23.43;8.23;;;;;;;6.99;66.55;102788.66;4981163;28;97281;-80
2022/01/26 03:16:55;;;;;;;23.57;10.20;;;;;;;7.00;66.40;102801.91;4966618;28;99739;-80
2022/01/26 03:19:30;;;;;;;27.13;11.67;;;;;;;6.99;66.68;102781.19;4982112;28;97096;-79
2022/01/26 03:28:15;;;;;;;20.20;8.63;;;;;;;6.87;66.76;102803.66;4980175;28;97039;-80
2022/01/26 03:35:53;;;;;;;23.40;8.80;;;;;;;6.91;66.91;102820.03;4922837;28;100433;-79
2022/01/26 03:41:20;;;;;;;18.13;8.10;;;;;;;6.90;66.88;102805.59;4955677;28;97317;-80
2022/01/26 03:43:45;;;;;;;19.90;8.47;;;;;;;6.86;66.78;102796.63;4984157;28;97429;-80
2022/01/26 03:46:10;;;;;;;19.80;8.33;;;;;;;6.86;67.04;102799.38;4963298;28;124541;-80
2022/01/26 03:48:36;;;;;;;20.77;9.17;;;;;;;6.91;66.71;102796.19;4983111;28;98059;-78
2022/01/26 03:51:02;;;;;;;20.10;9.57;;;;;;;6.92;66.78;102805.94;4965499;28;97624;-80
2022/01/26 03:53:27;;;;;;;20.40;8.60;;;;;;;6.94;66.67;102811.00;4981903;28;96884;-80
2022/01/26 03:55:53;;;;;;;16.83;7.93;;;;;;;6.89;66.86;102814.97;4982616;28;104354;-80
2022/01/26 03:58:18;;;;;;;17.93;7.80;;;;;;;6.92;66.72;102807.91;4960463;28;126489;-79
2022/01/26 04:00:44;;;;;;;23.77;10.07;;;;;;;6.94;66.99;102817.25;4979235;28;96971;-80
2022/01/26 04:03:09;;;;;;;19.57;8.87;;;;;;;6.92;66.63;102786.00;4964755;28;97226;-80
2022/01/26 04:05:35;;;;;;;23.47;9.30;;;;;;;6.92;66.92;102769.59;4979847;28;96883;-79
2022/01/26 04:08:07;;;;;;;21.30;9.43;;;;;;;6.90;66.82;102780.97;4965918;28;100397;-80
2022/01/26 04:10:46;;;;;;;24.47;9.53;;;;;;;6.89;66.83;102760.25;4980753;28;97252;-81
2022/01/26 04:13:11;;;;;;;19.17;8.93;;;;;;;6.86;66.57;102760.31;4963717;28;97340;-80
2022/01/26 04:15:37;;;;;;;21.00;9.03;;;;;;;6.86;66.85;102785.69;4978274;28;97326;-80
2022/01/26 04:18:07;;;;;;;19.00;8.20;;;;;;;6.85;66.85;102778.69;4982144;28;101796;-79
2022/01/26 04:20:37;;;;;;;23.20;8.43;;;;;;;6.86;66.93;102761.06;4971008;28;97936;-78
2022/01/26 04:23:12;;;;;;;22.00;9.40;;;;;;;6.85;66.86;102756.81;4964683;28;97829;-80
2022/01/26 04:25:39;;;;;;;21.43;9.30;;;;;;;6.77;66.85;102769.81;4978764;28;97936;-80
2022/01/26 04:28:09;;;;;;;19.37;9.03;;;;;;;6.80;67.17;102768.22;4981635;28;97313;-78
2022/01/26 04:30:34;;;;;;;19.23;7.97;;;;;;;6.86;66.90;102769.28;4981413;28;96893;-80
2022/01/26 04:33:03;;;;;;;20.80;8.83;;;;;;;6.85;66.79;102772.44;4961675;28;98250;-80
2022/01/26 04:35:29;;;;;;;16.20;7.60;;;;;;;6.88;66.59;102791.53;4963932;28;100364;-80
2022/01/26 04:40:23;;;;;;;19.93;8.73;;;;;;;6.84;66.78;102782.59;4981027;28;97963;-80
2022/01/26 04:43:03;;;;;;;19.40;8.53;;;;;;;6.83;66.70;102789.28;4984980;28;97934;-80
2022/01/26 04:45:28;;;;;;;18.80;7.80;;;;;;;6.84;66.94;102790.06;4961201;28;105194;-80
2022/01/26 04:47:54;;;;;;;14.50;7.70;;;;;;;6.83;66.78;102786.53;4982196;28;103993;-80
2022/01/26 04:50:19;;;;;;;21.03;8.10;;;;;;;6.85;66.81;102786.13;4981891;28;97519;-80
2022/01/26 04:52:47;;;;;;;17.60;7.70;;;;;;;6.81;66.92;102803.34;4959825;28;96958;-81
2022/01/26 04:55:13;;;;;;;15.50;7.40;;;;;;;6.82;66.77;102785.75;4964171;28;99210;-80
2022/01/26 04:57:38;;;;;;;13.80;6.67;;;;;;;6.84;66.73;102790.81;4966820;28;100338;-80
2022/01/26 05:00:09;;;;;;;19.80;7.40;;;;;;;6.86;66.66;102793.16;4967826;28;114810;-80
2022/01/26 05:02:35;;;;;;;18.80;8.60;;;;;;;6.83;66.74;102792.00;4971470;28;98030;-78
2022/01/26 05:05:00;;;;;;;20.67;7.93;;;;;;;6.82;66.59;102798.66;4968635;28;99172;-78
2022/01/26 05:07:25;;;;;;;16.67;8.23;;;;;;;6.81;66.47;102784.19;4964646;28;98891;-80
2022/01/26 05:09:51;;;;;;;15.73;7.50;;;;;;;6.74;66.55;102795.28;4960548;28;117052;-81
2022/01/26 05:12:17;;;;;;;13.90;6.50;;;;;;;6.69;66.78;102787.53;4958837;28;111091;-80
2022/01/26 05:14:45;;;;;;;14.40;6.53;;;;;;;6.69;66.80;102786.75;4965968;28;102103;-80
2022/01/26 05:17:12;;;;;;;15.73;7.50;;;;;;;6.66;66.43;102768.44;4979881;28;98034;-80
2022/01/26 05:19:38;;;;;;;14.00;7.10;;;;;;;6.70;66.54;102777.34;4978088;28;97807;-79
2022/01/26 05:22:04;;;;;;;15.47;7.57;;;;;;;6.68;66.84;102777.75;4961571;28;97015;-80
2022/01/26 05:24:30;;;;;;;19.47;7.60;;;;;;;6.63;66.49;102766.50;4964163;28;99725;-79
2022/01/26 05:26:55;;;;;;;17.00;7.80;;;;;;;6.64;67.07;102766.09;4978389;28;123195;-82
2022/01/26 05:29:22;;;;;;;16.87;7.80;;;;;;;6.67;67.01;102769.97;4980098;28;97448;-80
2022/01/26 05:31:48;;;;;;;19.73;7.87;;;;;;;6.64;66.66;102768.06;4966565;28;104505;-80
2022/01/26 05:34:13;;;;;;;19.03;8.23;;;;;;;6.65;66.61;102764.91;4963996;28;100213;-80
2022/01/26 05:36:38;;;;;;;15.27;7.23;;;;;;;6.63;66.64;102770.03;4963349;28;99101;-80
2022/01/26 05:39:04;;;;;;;16.13;7.10;;;;;;;6.64;66.63;102752.41;4963071;28;98012;-80
2022/01/26 05:41:29;;;;;;;17.63;8.00;;;;;;;6.65;66.51;102755.94;4964953;28;97178;-80
2022/01/26 05:43:55;;;;;;;15.30;6.93;;;;;;;6.62;66.60;102738.38;4975121;28;112036;-80
2022/01/26 05:46:28;;;;;;;15.50;7.90;;;;;;;6.66;66.58;102749.28;4979471;28;97780;-80
2022/01/26 05:48:55;;;;;;;16.70;8.60;;;;;;;6.60;66.59;102757.16;4981080;28;96995;-80
2022/01/26 05:51:20;;;;;;;19.77;8.57;;;;;;;6.58;66.55;102758.75;4959194;28;97332;-80
2022/01/26 05:53:46;;;;;;;24.93;9.47;;;;;;;6.57;66.57;102735.34;4982984;28;97895;-81
2022/01/26 05:56:11;;;;;;;20.27;8.70;;;;;;;6.54;66.58;102723.28;4961968;28;99516;-80
2022/01/26 05:58:37;;;;;;;19.10;8.40;;;;;;;6.56;66.53;102725.59;4979233;28;97956;-81
2022/01/26 06:01:03;;;;;;;24.07;9.87;;;;;;;6.56;66.37;102722.84;4984451;28;97390;-80
2022/01/26 06:03:29;;;;;;;23.87;9.07;;;;;;;6.56;66.53;102733.78;4978095;28;97607;-80
2022/01/26 06:05:55;;;;;;;17.67;8.07;;;;;;;6.56;66.34;102725.59;4963077;28;100078;-79
2022/01/26 06:08:24;;;;;;;19.53;9.60;;;;;;;6.52;66.40;102725.66;4979736;28;97568;-80
2022/01/26 06:10:50;;;;;;;24.03;9.00;;;;;;;6.50;66.48;102736.22;4962998;28;97425;-81
2022/01/26 06:13:16;;;;;;;21.77;9.70;;;;;;;6.46;66.69;102726.53;4961822;28;98927;-81
2022/01/26 06:15:42;;;;;;;21.27;9.33;;;;;;;6.41;66.32;102721.53;4979890;28;97570;-80
2022/01/26 06:18:08;;;;;;;22.37;9.43;;;;;;;6.41;66.30;102729.72;4983119;28;96840;-80
2022/01/26 06:20:34;;;;;;;24.20;9.50;;;;;;;6.41;66.88;102725.03;4981806;28;97240;-81
2022/01/26 06:22:59;;;;;;;24.00;9.93;;;;;;;6.45;66.52;102744.13;4978653;28;97869;-80
2022/01/26 06:25:24;;;;;;;23.67;9.70;;;;;;;6.45;66.22;102753.09;4961953;28;127056;-81
2022/01/26 06:27:52;;;;;;;22.97;9.80;;;;;;;6.45;66.41;102744.91;4983145;28;97317;-79
2022/01/26 06:30:18;;;;;;;24.53;11.00;;;;;;;6.45;66.27;102735.91;4978978;28;97618;-82
2022/01/26 06:32:44;;;;;;;20.60;9.43;;;;;;;6.43;66.13;102752.75;4961708;28;100795;-79
2022/01/26 06:35:10;;;;;;;25.40;10.20;;;;;;;6.41;66.23;102744.19;4963273;28;99918;-80
2022/01/26 06:37:36;;;;;;;20.90;9.30;;;;;;;6.36;66.31;102746.56;4978071;28;97512;-81
2022/01/26 06:40:03;;;;;;;26.77;10.23;;;;;;;6.39;66.40;102740.31;4976251;28;97263;-80
2022/01/26 06:42:35;;;;;;;29.33;11.23;;;;;;;6.35;66.45;102751.28;4961304;28;100481;-80
2022/01/26 06:49:51;;;;;;;27.23;10.77;;;;;;;6.27;66.31;102768.22;4978356;28;97878;-81
2022/01/26 06:52:17;;;;;;;25.63;11.00;;;;;;;6.29;66.30;102760.38;4957252;28;99743;-82
2022/01/26 06:54:42;;;;;;;22.93;9.87;;;;;;;6.27;66.22;102755.28;4962943;28;100297;-80
2022/01/26 06:57:08;;;;;;;30.80;11.37;;;;;;;6.26;66.33;102731.91;4958253;28;116464;-79
2022/01/26 06:59:33;;;;;;;25.53;11.07;;;;;;;6.27;66.27;102722.50;4956587;28;114051;-80
2022/01/26 07:01:59;;;;;;;27.77;9.77;;;;;;;6.26;66.16;102703.78;4959279;28;100678;-80
2022/01/26 07:04:24;;;;;;;29.80;12.33;;;;;;;6.27;66.36;102744.34;4981624;28;97172;-80
2022/01/26 07:06:49;;;;;;;29.70;11.20;;;;;;;6.26;66.13;102733.84;4983472;28;109436;-81
2022/01/26 07:09:16;;;;;;;32.50;11.30;;;;;;;6.22;66.43;102714.00;4961788;28;101503;-81
2022/01/26 07:11:42;;;;;;;33.90;11.97;;;;;;;6.20;66.39;102705.44;4960060;28;99490;-79
2022/01/26 07:14:10;;;;;;;29.90;11.50;;;;;;;6.16;66.04;102710.19;4982336;28;100934;-82
2022/01/26 07:20:37;;;;;;;26.50;10.57;;;;;;;6.21;65.99;102702.28;4980004;28;99063;-79
2022/01/26 07:22:06;;;;;;;26.63;10.60;;;;;;;6.18;66.37;102705.81;4971036;28;103414;-81
2022/01/26 07:24:31;;;;;;;28.10;10.10;;;;;;;6.10;66.46;102701.66;4963809;28;126010;-80
2022/01/26 07:26:56;;;;;;;34.60;11.40;;;;;;;6.14;66.33;102707.84;4965884;28;97334;-81
2022/01/26 07:29:23;;;;;;;28.80;11.40;;;;;;;6.12;66.24;102699.28;4979876;28;97251;-80
2022/01/26 07:31:49;;;;;;;32.93;13.03;;;;;;;6.11;66.22;102707.91;4965887;28;100361;-81
2022/01/26 07:34:16;;;;;;;31.07;11.10;;;;;;;6.09;66.14;102704.81;4966093;28;99484;-80
2022/01/26 07:36:42;;;;;;;33.77;11.70;;;;;;;6.06;66.22;102711.84;4962729;28;97472;-82
2022/01/26 07:39:12;;;;;;;42.03;14.83;;;;;;;6.01;66.06;102704.88;4985065;28;97310;-82
2022/01/26 07:41:37;;;;;;;32.40;11.87;;;;;;;6.02;66.19;102716.59;4964736;28;100270;-80
2022/01/26 07:44:04;;;;;;;28.43;11.87;;;;;;;6.02;66.09;102717.38;4983246;28;97387;-80
2022/01/26 07:46:30;;;;;;;27.80;11.83;;;;;;;6.04;66.37;102723.22;4983672;28;97236;-80
2022/01/26 07:48:56;;;;;;;32.30;12.50;;;;;;;6.05;66.26;102738.41;4980840;28;104093;-80
2022/01/26 07:51:21;;;;;;;37.40;13.50;;;;;;;6.05;66.49;102732.94;4981403;28;96944;-80
2022/01/26 07:53:47;;;;;;;32.50;12.60;;;;;;;6.07;66.06;102739.97;4965630;28;98959;-80
2022/01/26 07:56:13;;;;;;;33.30;13.10;;;;;;;6.04;66.36;102733.34;4981159;28;97369;-81
2022/01/26 07:58:40;;;;;;;39.60;13.50;;;;;;;6.06;66.19;102725.53;4963568;28;97845;-81
2022/01/26 08:01:06;;;;;;;28.30;11.30;;;;;;;6.07;66.14;102719.63;4964413;28;107344;-80
2022/01/26 08:03:34;;;;;;;33.47;13.50;;;;;;;6.04;66.06;102720.47;4963192;28;99005;-81
2022/01/26 08:06:01;;;;;;;36.47;13.77;;;;;;;6.05;65.96;102762.22;4966131;28;97278;-80
2022/01/26 08:08:27;;;;;;;36.83;13.27;;;;;;;6.00;66.02;102733.41;4980723;28;98247;-80
2022/01/26 08:10:52;;;;;;;37.50;13.60;;;;;;;5.98;65.96;102737.72;4961917;28;100467;-81
2022/01/26 08:13:18;;;;;;;32.47;12.00;;;;;;;5.93;66.12;102755.34;4982335;28;98862;-81
2022/01/26 08:15:43;;;;;;;29.23;10.47;;;;;;;5.94;66.09;102743.22;4964746;28;100348;-80
2022/01/26 08:18:08;;;;;;;34.63;11.80;;;;;;;5.92;65.87;102786.56;4963549;28;110422;-80
2022/01/26 08:20:34;;;;;;;26.00;11.17;;;;;;;5.94;65.93;102754.16;4963045;28;116420;-81
2022/01/26 08:22:59;;;;;;;36.57;12.03;;;;;;;5.93;65.68;102752.63;4980937;28;98803;-80
2022/01/26 08:25:25;;;;;;;33.63;12.53;;;;;;;5.97;66.35;102738.91;4962939;28;116150;-79
2022/01/26 08:28:00;;;;;;;29.20;12.73;;;;;;;5.98;66.33;102762.31;4961326;28;96946;-80
2022/01/26 08:30:28;;;;;;;33.03;11.50;;;;;;;6.04;66.08;102761.47;4961280;28;104216;-80
2022/01/26 08:32:53;;;;;;;29.47;11.47;;;;;;;6.05;65.88;102765.72;4981161;28;96760;-81
2022/01/26 08:35:18;;;;;;;33.57;11.83;;;;;;;6.02;65.64;102784.91;4962829;28;97192;-80
2022/01/26 08:37:44;;;;;;;26.57;11.20;;;;;;;5.99;65.82;102772.84;4962662;28;97471;-80
2022/01/26 08:40:10;;;;;;;36.40;12.37;;;;;;;5.97;65.74;102768.97;4983869;28;97506;-80
2022/01/26 08:42:37;;;;;;;33.27;11.00;;;;;;;5.94;65.87;102778.75;4979469;28;98715;-80
2022/01/26 08:45:04;;;;;;;29.97;10.90;;;;;;;5.94;65.74;102767.81;4964000;28;97887;-80
2022/01/26 08:47:29;;;;;;;34.33;12.10;;;;;;;5.99;65.62;102750.97;4982385;28;97333;-79
2022/01/26 08:49:54;;;;;;;29.90;10.60;;;;;;;5.96;65.94;102767.41;4981002;28;123765;-80
2022/01/26 08:52:19;;;;;;;31.60;11.30;;;;;;;5.89;65.70;102757.34;4983003;28;103745;-81
2022/01/26 08:54:45;;;;;;;31.87;10.77;;;;;;;5.91;65.72;102754.97;4965334;28;97003;-80
2022/01/26 08:57:10;;;;;;;30.17;11.20;;;;;;;5.88;65.99;102757.75;4982913;28;96888;-81
2022/01/26 08:59:35;;;;;;;29.53;11.03;;;;;;;5.88;65.66;102774.91;4962811;28;125108;-80
2022/01/26 09:02:01;;;;;;;33.50;12.10;;;;;;;5.87;65.84;102769.88;4980558;28;126722;-80
2022/01/26 09:04:26;;;;;;;31.10;11.43;;;;;;;5.85;65.92;102792.09;4961969;28;97203;-80
2022/01/26 09:06:55;;;;;;;39.60;14.17;;;;;;;5.82;66.11;102779.25;4963028;28;98105;-78
2022/01/26 09:09:24;;;;;;;31.93;12.50;;;;;;;5.76;65.70;102783.63;4963564;28;99655;-79
2022/01/26 09:11:50;;;;;;;34.20;11.90;;;;;;;5.77;65.74;102782.41;4965595;28;99210;-80
2022/01/26 09:14:21;;;;;;;37.63;13.20;;;;;;;5.77;65.67;102784.38;4961970;28;97117;-80
2022/01/26 09:16:49;;;;;;;31.47;12.50;;;;;;;5.74;65.75;102761.41;4964975;28;97168;-80
2022/01/26 09:19:35;;;;;;;30.60;12.17;;;;;;;5.74;65.76;102766.88;4962217;28;103941;-79
2022/01/26 09:22:04;;;;;;;43.73;15.37;;;;;;;5.75;65.80;102764.88;4978833;28;101751;-81
2022/01/26 09:24:31;;;;;;;38.20;13.37;;;;;;;5.76;65.88;102772.69;4980983;28;97012;-81
2022/01/26 09:26:57;;;;;;;45.80;15.07;;;;;;;5.75;66.05;102776.59;4965833;28;97164;-79
2022/01/26 09:29:23;;;;;;;41.77;14.33;;;;;;;5.80;65.74;102775.38;4979180;28;103176;-77
2022/01/26 09:31:48;;;;;;;39.57;14.30;;;;;;;5.83;65.86;102780.78;4962844;28;98958;-81
2022/01/26 09:34:19;;;;;;;47.37;16.30;;;;;;;5.82;65.53;102778.47;4980416;28;97815;-80
2022/01/26 09:36:45;;;;;;;37.93;14.23;;;;;;;5.79;65.84;102771.84;4965710;28;103717;-81
2022/01/26 09:39:12;;;;;;;39.97;14.80;;;;;;;5.84;65.84;102787.06;4980303;28;96948;-80
2022/01/26 09:41:39;;;;;;;40.77;14.37;;;;;;;5.86;65.56;102792.88;4979047;28;98870;-80
2022/01/26 09:44:05;;;;;;;48.07;15.23;;;;;;;5.92;65.68;102788.50;4979365;28;97205;-80
2022/01/26 09:46:30;;;;;;;45.50;13.33;;;;;;;5.97;65.66;102793.53;4961158;28;97029;-80
2022/01/26 09:48:56;;;;;;;34.93;12.83;;;;;;;5.96;65.70;102778.34;4979191;28;97454;-80
2022/01/26 09:51:21;;;;;;;42.93;13.87;;;;;;;5.99;65.79;102780.25;4964028;28;103086;-82
2022/01/26 09:54:01;;;;;;;40.47;13.23;;;;;;;6.01;65.36;102750.56;4963200;28;97111;-82
2022/01/26 09:56:26;;;;;;;34.30;12.57;;;;;;;5.98;65.40;102752.16;4978252;28;97067;-79
2022/01/26 09:58:52;;;;;;;47.07;14.40;;;;;;;5.97;65.59;102769.72;4963092;28;100332;-80
2022/01/26 10:01:17;;;;;;;44.80;15.30;;;;;;;5.97;65.71;102764.28;4963999;28;99555;-80
2022/01/26 10:03:45;;;;;;;46.90;15.80;;;;;;;6.07;65.71;102746.22;4957952;28;119474;-80
2022/01/26 10:06:21;;;;;;;45.83;15.43;;;;;;;6.12;65.59;102751.19;4982835;28;97297;-80
2022/01/26 10:19:04;;;;;;;36.50;14.70;;;;;;;6.16;65.38;102770.31;4978810;28;97248;-81
2022/01/26 10:21:29;;;;;;;35.80;11.60;;;;;;;6.14;65.43;102759.75;4961778;28;99682;-80
2022/01/26 10:23:58;;;;;;;31.27;12.03;;;;;;;6.10;65.43;102764.50;4962475;28;97007;-80
2022/01/26 10:26:23;;;;;;;45.07;14.53;;;;;;;6.07;65.03;102757.13;4964744;28;97255;-80
2022/01/26 10:29:00;;;;;;;31.57;13.07;;;;;;;6.07;65.04;102765.34;4978241;28;99636;-79
2022/01/26 10:31:37;;;;;;;37.37;13.23;;;;;;;6.07;65.24;102751.69;4959315;28;103493;-80
2022/01/26 10:34:12;;;;;;;32.70;12.03;;;;;;;6.07;65.26;102753.63;4963092;28;97320;-80
2022/01/26 10:37:08;;;;;;;34.93;11.97;;;;;;;6.07;65.23;102750.91;4959472;28;96960;-79
2022/01/26 10:39:42;;;;;;;40.00;12.60;;;;;;;6.12;65.36;102750.41;4963010;28;104896;-79
2022/01/26 10:42:12;;;;;;;33.63;11.50;;;;;;;6.14;65.26;102751.56;4965393;28;99818;-79
2022/01/26 10:44:45;;;;;;;34.87;12.37;;;;;;;6.13;65.22;102749.25;4964773;28;96887;-79
2022/01/26 10:47:11;;;;;;;33.93;11.50;;;;;;;6.03;64.92;102754.44;4964042;28;96852;-81
2022/01/26 10:52:31;;;;;;;34.30;12.00;;;;;;;5.97;65.30;102733.44;4993090;28;100051;-80
2022/01/26 10:54:57;;;;;;;32.17;11.93;;;;;;;5.98;65.08;102740.47;4974855;28;97218;-81
2022/01/26 10:57:24;;;;;;;31.60;10.87;;;;;;;5.95;65.07;102733.06;4975512;28;96762;-80
2022/01/26 10:59:50;;;;;;;36.77;12.00;;;;;;;5.96;65.35;102748.28;4971709;28;99197;-82
2022/01/26 11:02:27;;;;;;;27.80;10.63;;;;;;;5.96;65.41;102751.78;4983977;28;97457;-80
2022/01/26 11:04:52;;;;;;;31.77;10.90;;;;;;;5.94;65.13;102745.94;4983087;28;100873;-80
2022/01/26 11:07:18;;;;;;;36.83;10.93;;;;;;;5.95;65.27;102749.47;4966581;28;97096;-77
2022/01/26 11:09:49;;;;;;;32.13;11.00;;;;;;;5.95;64.96;102744.78;4979414;28;97143;-82
2022/01/26 11:12:26;;;;;;;33.03;11.73;;;;;;;5.94;65.27;102759.63;4983070;28;97157;-80
2022/01/26 11:14:57;;;;;;;38.73;13.67;;;;;;;5.89;65.09;102768.28;4978542;28;97112;-80
2022/01/26 11:17:28;;;;;;;37.00;12.53;;;;;;;5.86;65.32;102744.50;4961731;28;98468;-80
2022/01/26 11:19:56;;;;;;;34.77;13.97;;;;;;;5.87;65.20;102754.25;4964165;28;98439;-80
2022/01/26 11:22:27;;;;;;;35.00;12.80;;;;;;;5.84;65.26;102757.00;4980020;28;97227;-79
2022/01/26 11:24:54;;;;;;;39.53;14.33;;;;;;;5.89;65.12;102751.09;4967325;28;98231;-80
2022/01/26 11:27:20;;;;;;;48.10;16.20;;;;;;;5.90;65.32;102756.16;4982778;28;97091;-80
2022/01/26 11:29:50;;;;;;;41.90;14.80;;;;;;;5.93;65.35;102741.69;4962693;28;99158;-80
2022/01/26 11:32:35;;;;;;;47.57;16.03;;;;;;;5.94;65.29;102745.94;4963586;28;100067;-80
2022/01/26 11:35:05;;;;;;;44.87;15.87;;;;;;;5.96;65.13;102756.50;4982043;28;96782;-80
2022/01/26 11:37:58;;;;;;;47.83;18.17;;;;;;;5.97;65.23;102747.09;4977244;28;97258;-79
2022/01/26 11:45:37;;;;;;;54.17;17.90;;;;;;;5.97;65.26;102731.47;4982241;28;97501;-79
2022/01/26 11:48:09;;;;;;;54.67;18.07;;;;;;;5.96;64.96;102713.53;4965936;28;96953;-80
2022/01/26 11:50:37;;;;;;;48.50;17.67;;;;;;;6.00;65.11;102703.34;4980274;28;97917;-80
2022/01/26 11:53:14;;;;;;;48.00;18.47;;;;;;;5.98;65.20;102702.97;4965659;28;100189;-80
2022/01/26 11:55:50;;;;;;;56.03;18.13;;;;;;;5.97;65.00;102685.03;4965013;28;97321;-78
2022/01/26 11:58:35;;;;;;;49.47;17.80;;;;;;;5.96;65.28;102680.00;4957296;28;96981;-81
2022/01/26 12:03:44;;;;;;;55.30;20.30;;;;;;;5.93;65.51;102681.59;4983898;28;97141;-80
2022/01/26 12:06:19;;;;;;;59.57;19.00;;;;;;;5.96;65.08;102688.94;4963928;28;97285;-80
2022/01/26 12:08:45;;;;;;;57.47;20.07;;;;;;;5.95;65.09;102664.78;4961055;28;97212;-80
2022/01/26 12:11:13;;;;;;;50.00;17.87;;;;;;;5.98;65.26;102661.97;4983038;28;97590;-80
2022/01/26 12:13:40;;;;;;;59.07;20.03;;;;;;;6.04;65.21;102665.06;4961917;28;101393;-81
2022/01/26 12:16:11;;;;;;;56.03;19.03;;;;;;;6.04;65.13;102660.38;4983084;28;97544;-80
2022/01/26 12:18:46;;;;;;;60.00;20.23;;;;;;;6.01;65.13;102663.91;4963588;28;97319;-82
2022/01/26 12:35:21;;;;;;;64.17;23.20;;;;;;;6.11;65.11;102645.81;4983583;28;97216;-81
2022/01/26 12:43:36;;;;;;;68.37;23.37;;;;;;;6.15;65.18;102635.63;4980648;28;101333;-79
2022/01/26 12:46:03;;;;;;;77.07;25.70;;;;;;;6.13;65.55;102648.13;4961554;28;100668;-79
2022/01/26 12:48:30;;;;;;;65.07;22.93;;;;;;;6.17;65.16;102652.38;4981955;28;96810;-80
2022/01/26 12:50:58;;;;;;;69.77;23.57;;;;;;;6.21;65.37;102625.75;4964223;28;97246;-80
2022/01/26 12:53:29;;;;;;;70.53;22.43;;;;;;;6.22;65.26;102623.81;4982954;28;98912;-79
2022/01/26 12:56:00;;;;;;;62.07;21.63;;;;;;;6.24;65.37;102621.44;4964078;28;103580;-79
2022/01/26 12:58:35;;;;;;;61.20;22.37;;;;;;;6.24;65.17;102610.50;4962167;28;97712;-81
2022/01/26 13:01:04;;;;;;;71.47;24.37;;;;;;;6.25;65.32;102606.56;4958636;28;97562;-81
2022/01/26 13:03:35;;;;;;;73.13;23.20;;;;;;;6.26;65.57;102603.44;4956264;28;104779;-79
2022/01/26 13:06:24;;;;;;;74.77;24.00;;;;;;;6.23;64.86;102603.47;4981910;28;97139;-79
2022/01/26 13:08:53;;;;;;;77.13;23.70;;;;;;;6.17;65.12;102635.19;4961252;28;97555;-79
2022/01/26 13:11:26;;;;;;;77.43;24.33;;;;;;;6.20;65.30;102593.38;4958630;28;96883;-81
2022/01/26 13:14:16;;;;;;;63.27;22.87;;;;;;;6.19;65.28;102592.59;4962160;28;100645;-80
2022/01/26 13:16:55;;;;;;;72.57;22.87;;;;;;;6.21;65.40;102590.22;4964704;28;103617;-80
2022/01/26 13:39:11;;;;;;;76.63;22.83;;;;;;;6.23;65.53;102567.94;4866207;28;101305;-80
2022/01/26 13:53:58;;;;;;;78.97;24.80;;;;;;;6.26;65.64;102569.84;4980772;28;97114;-80
2022/01/26 13:56:53;;;;;;;78.30;25.40;;;;;;;6.23;65.58;102565.19;4981465;28;101913;-79
2022/01/26 13:59:25;;;;;;;72.13;24.10;;;;;;;6.25;65.63;102576.50;4975197;28;100384;-78
2022/01/26 14:01:51;;;;;;;72.70;23.77;;;;;;;6.25;65.58;102582.75;4979435;28;96953;-79
2022/01/26 14:04:18;;;;;;;69.00;23.57;;;;;;;6.29;65.86;102605.31;4981845;28;97933;-80
2022/01/26 14:06:45;;;;;;;81.63;25.47;;;;;;;6.31;65.55;102581.06;4956468;28;99434;-81
2022/01/26 14:09:10;;;;;;;74.20;23.57;;;;;;;6.32;65.69;102579.91;4959846;28;99590;-79
2022/01/26 14:11:36;;;;;;;76.07;23.40;;;;;;;6.29;65.77;102567.03;4962850;28;97583;-79